sensor_id;sensor_type;location;lat;lon;timestamp;P1;durP1;ratioP1;P2;durP2;ratioP2
8978;SDS011;4524;51.364;5.448;2023-04-19T00:02:24;15.30;;;13.80;;
8978;SDS011;4524;51.364;5.448;2023-04-19T00:04:55;15.30;;;13.70;;
8978;SDS011;4524;51.364;5.448;2023-04-19T00:07:23;14.77;;;13.27;;
8978;SDS011;4524;51.364;5.448;2023-04-19T00:09:51;16.33;;;14.17;;
8978;SDS011;4524;51.364;5.448;2023-04-19T00:12:19;14.37;;;12.87;;
8978;SDS011;4524;51.364;5.448;2023-04-19T00:14:47;16.13;;;13.87;;
8978;SDS011;4524;51.364;5.448;2023-04-19T00:17:15;16.03;;;13.53;;
8978;SDS011;4524;51.364;5.448;2023-04-19T00:19:43;15.80;;;13.53;;
8978;SDS011;4524;51.364;5.448;2023-04-19T00:22:12;15.73;;;13.57;;
8978;SDS011;4524;51.364;5.448;2023-04-19T00:24:40;16.30;;;14.30;;
8978;SDS011;4524;51.364;5.448;2023-04-19T00:27:08;16.30;;;14.50;;
8978;SDS011;4524;51.364;5.448;2023-04-19T00:29:37;15.40;;;13.83;;
8978;SDS011;4524;51.364;5.448;2023-04-19T00:32:05;15.70;;;13.63;;
8978;SDS011;4524;51.364;5.448;2023-04-19T00:34:33;15.73;;;14.07;;
8978;SDS011;4524;51.364;5.448;2023-04-19T00:37:01;15.37;;;13.90;;
8978;SDS011;4524;51.364;5.448;2023-04-19T00:39:32;16.73;;;14.87;;
8978;SDS011;4524;51.364;5.448;2023-04-19T00:42:02;15.03;;;13.50;;
8978;SDS011;4524;51.364;5.448;2023-04-19T00:44:30;16.07;;;14.37;;
8978;SDS011;4524;51.364;5.448;2023-04-19T00:46:58;17.40;;;14.10;;
8978;SDS011;4524;51.364;5.448;2023-04-19T00:49:27;14.87;;;13.37;;
8978;SDS011;4524;51.364;5.448;2023-04-19T00:51:56;16.50;;;14.90;;
8978;SDS011;4524;51.364;5.448;2023-04-19T00:54:24;15.60;;;14.00;;
8978;SDS011;4524;51.364;5.448;2023-04-19T00:56:53;15.67;;;13.97;;
8978;SDS011;4524;51.364;5.448;2023-04-19T00:59:23;17.23;;;15.10;;
8978;SDS011;4524;51.364;5.448;2023-04-19T01:01:51;15.47;;;13.93;;
8978;SDS011;4524;51.364;5.448;2023-04-19T01:04:19;17.70;;;15.53;;
8978;SDS011;4524;51.364;5.448;2023-04-19T01:06:49;16.20;;;14.60;;
8978;SDS011;4524;51.364;5.448;2023-04-19T01:09:16;17.10;;;15.40;;
8978;SDS011;4524;51.364;5.448;2023-04-19T01:11:45;16.60;;;14.90;;
8978;SDS011;4524;51.364;5.448;2023-04-19T01:14:14;17.70;;;15.77;;
8978;SDS011;4524;51.364;5.448;2023-04-19T01:16:45;17.50;;;15.70;;
8978;SDS011;4524;51.364;5.448;2023-04-19T01:19:13;17.40;;;14.97;;
8978;SDS011;4524;51.364;5.448;2023-04-19T01:21:41;16.37;;;14.67;;
8978;SDS011;4524;51.364;5.448;2023-04-19T01:24:12;16.67;;;14.93;;
8978;SDS011;4524;51.364;5.448;2023-04-19T01:26:41;17.10;;;15.30;;
8978;SDS011;4524;51.364;5.448;2023-04-19T01:29:09;17.77;;;15.27;;
8978;SDS011;4524;51.364;5.448;2023-04-19T01:31:37;17.13;;;15.30;;
8978;SDS011;4524;51.364;5.448;2023-04-19T01:34:05;17.00;;;14.50;;
8978;SDS011;4524;51.364;5.448;2023-04-19T01:36:33;18.13;;;16.20;;
8978;SDS011;4524;51.364;5.448;2023-04-19T01:39:01;17.00;;;15.30;;
8978;SDS011;4524;51.364;5.448;2023-04-19T01:41:30;17.37;;;15.60;;
8978;SDS011;4524;51.364;5.448;2023-04-19T01:43:58;16.73;;;14.80;;
8978;SDS011;4524;51.364;5.448;2023-04-19T01:46:26;17.30;;;15.50;;
8978;SDS011;4524;51.364;5.448;2023-04-19T01:48:54;16.10;;;14.40;;
8978;SDS011;4524;51.364;5.448;2023-04-19T01:51:22;17.63;;;15.13;;
8978;SDS011;4524;51.364;5.448;2023-04-19T01:53:51;17.27;;;15.47;;
8978;SDS011;4524;51.364;5.448;2023-04-19T01:56:21;17.17;;;15.40;;
8978;SDS011;4524;51.364;5.448;2023-04-19T01:58:50;15.63;;;14.07;;
8978;SDS011;4524;51.364;5.448;2023-04-19T02:01:18;15.83;;;14.20;;
8978;SDS011;4524;51.364;5.448;2023-04-19T02:03:46;18.53;;;14.83;;
8978;SDS011;4524;51.364;5.448;2023-04-19T02:06:14;16.53;;;14.83;;
8978;SDS011;4524;51.364;5.448;2023-04-19T02:08:42;16.73;;;14.93;;
8978;SDS011;4524;51.364;5.448;2023-04-19T02:11:11;17.13;;;14.70;;
8978;SDS011;4524;51.364;5.448;2023-04-19T02:13:41;15.77;;;14.13;;
8978;SDS011;4524;51.364;5.448;2023-04-19T02:16:10;16.13;;;14.37;;
8978;SDS011;4524;51.364;5.448;2023-04-19T02:18:39;16.70;;;14.10;;
8978;SDS011;4524;51.364;5.448;2023-04-19T02:21:07;17.43;;;15.63;;
8978;SDS011;4524;51.364;5.448;2023-04-19T02:23:36;16.73;;;14.90;;
8978;SDS011;4524;51.364;5.448;2023-04-19T02:26:04;16.63;;;14.67;;
8978;SDS011;4524;51.364;5.448;2023-04-19T02:28:33;16.67;;;14.07;;
8978;SDS011;4524;51.364;5.448;2023-04-19T02:31:02;16.53;;;14.83;;
8978;SDS011;4524;51.364;5.448;2023-04-19T02:33:34;16.70;;;14.93;;
8978;SDS011;4524;51.364;5.448;2023-04-19T02:36:02;15.97;;;14.27;;
8978;SDS011;4524;51.364;5.448;2023-04-19T02:38:32;17.57;;;15.63;;
8978;SDS011;4524;51.364;5.448;2023-04-19T02:41:00;16.73;;;14.47;;
8978;SDS011;4524;51.364;5.448;2023-04-19T02:43:29;15.93;;;14.20;;
8978;SDS011;4524;51.364;5.448;2023-04-19T02:45:57;15.77;;;14.17;;
8978;SDS011;4524;51.364;5.448;2023-04-19T02:48:25;16.47;;;14.77;;
8978;SDS011;4524;51.364;5.448;2023-04-19T02:50:54;16.13;;;14.53;;
8978;SDS011;4524;51.364;5.448;2023-04-19T02:53:22;16.70;;;14.67;;
8978;SDS011;4524;51.364;5.448;2023-04-19T02:55:51;16.53;;;14.83;;
8978;SDS011;4524;51.364;5.448;2023-04-19T02:58:19;16.93;;;15.10;;
8978;SDS011;4524;51.364;5.448;2023-04-19T03:01:07;18.87;;;15.37;;
8978;SDS011;4524;51.364;5.448;2023-04-19T03:03:35;17.17;;;15.40;;
8978;SDS011;4524;51.364;5.448;2023-04-19T03:06:05;16.40;;;14.60;;
8978;SDS011;4524;51.364;5.448;2023-04-19T03:08:34;16.20;;;14.57;;
8978;SDS011;4524;51.364;5.448;2023-04-19T03:11:02;17.40;;;15.37;;
8978;SDS011;4524;51.364;5.448;2023-04-19T03:13:31;17.33;;;15.53;;
8978;SDS011;4524;51.364;5.448;2023-04-19T03:15:59;18.33;;;15.63;;
8978;SDS011;4524;51.364;5.448;2023-04-19T03:18:29;18.30;;;14.83;;
8978;SDS011;4524;51.364;5.448;2023-04-19T03:20:59;17.10;;;15.23;;
8978;SDS011;4524;51.364;5.448;2023-04-19T03:23:33;16.80;;;15.10;;
8978;SDS011;4524;51.364;5.448;2023-04-19T03:26:01;18.73;;;15.73;;
8978;SDS011;4524;51.364;5.448;2023-04-19T03:28:36;18.03;;;15.10;;
8978;SDS011;4524;51.364;5.448;2023-04-19T03:31:15;21.77;;;15.63;;
8978;SDS011;4524;51.364;5.448;2023-04-19T03:33:45;17.23;;;14.77;;
8978;SDS011;4524;51.364;5.448;2023-04-19T03:36:14;19.43;;;16.57;;
8978;SDS011;4524;51.364;5.448;2023-04-19T03:38:46;19.17;;;15.50;;
8978;SDS011;4524;51.364;5.448;2023-04-19T03:41:19;17.37;;;15.03;;
8978;SDS011;4524;51.364;5.448;2023-04-19T03:43:53;17.33;;;15.33;;
8978;SDS011;4524;51.364;5.448;2023-04-19T03:46:23;17.93;;;14.97;;
8978;SDS011;4524;51.364;5.448;2023-04-19T03:48:52;15.77;;;13.43;;
8978;SDS011;4524;51.364;5.448;2023-04-19T03:51:21;16.03;;;14.33;;
8978;SDS011;4524;51.364;5.448;2023-04-19T03:53:50;18.33;;;13.63;;
8978;SDS011;4524;51.364;5.448;2023-04-19T03:56:18;16.83;;;14.63;;
8978;SDS011;4524;51.364;5.448;2023-04-19T03:58:49;16.83;;;14.17;;
8978;SDS011;4524;51.364;5.448;2023-04-19T04:01:17;15.67;;;13.63;;
8978;SDS011;4524;51.364;5.448;2023-04-19T04:03:46;17.10;;;15.30;;
8978;SDS011;4524;51.364;5.448;2023-04-19T04:06:16;16.73;;;14.90;;
8978;SDS011;4524;51.364;5.448;2023-04-19T04:08:45;15.90;;;14.23;;
8978;SDS011;4524;51.364;5.448;2023-04-19T04:11:14;15.10;;;12.40;;
8978;SDS011;4524;51.364;5.448;2023-04-19T04:13:45;13.93;;;12.53;;
8978;SDS011;4524;51.364;5.448;2023-04-19T04:16:18;16.33;;;13.20;;
8978;SDS011;4524;51.364;5.448;2023-04-19T04:18:48;16.27;;;12.33;;
8978;SDS011;4524;51.364;5.448;2023-04-19T04:21:16;13.60;;;12.17;;
8978;SDS011;4524;51.364;5.448;2023-04-19T04:23:46;15.40;;;13.17;;
8978;SDS011;4524;51.364;5.448;2023-04-19T04:26:24;15.60;;;12.90;;
8978;SDS011;4524;51.364;5.448;2023-04-19T04:29:09;14.80;;;11.60;;
8978;SDS011;4524;51.364;5.448;2023-04-19T04:31:38;15.93;;;12.30;;
8978;SDS011;4524;51.364;5.448;2023-04-19T04:34:06;14.30;;;12.20;;
8978;SDS011;4524;51.364;5.448;2023-04-19T04:36:42;12.17;;;10.87;;
8978;SDS011;4524;51.364;5.448;2023-04-19T04:39:10;13.87;;;11.37;;
8978;SDS011;4524;51.364;5.448;2023-04-19T04:41:42;14.50;;;12.23;;
8978;SDS011;4524;51.364;5.448;2023-04-19T04:44:11;13.70;;;11.93;;
8978;SDS011;4524;51.364;5.448;2023-04-19T04:46:42;15.27;;;11.63;;
8978;SDS011;4524;51.364;5.448;2023-04-19T04:49:13;13.17;;;11.57;;
8978;SDS011;4524;51.364;5.448;2023-04-19T04:51:41;12.77;;;11.47;;
8978;SDS011;4524;51.364;5.448;2023-04-19T04:54:09;15.87;;;11.40;;
8978;SDS011;4524;51.364;5.448;2023-04-19T04:56:37;12.17;;;10.40;;
8978;SDS011;4524;51.364;5.448;2023-04-19T04:59:07;12.20;;;10.60;;
8978;SDS011;4524;51.364;5.448;2023-04-19T05:01:38;13.07;;;10.90;;
8978;SDS011;4524;51.364;5.448;2023-04-19T05:04:06;14.77;;;10.60;;
8978;SDS011;4524;51.364;5.448;2023-04-19T05:06:34;13.00;;;10.83;;
8978;SDS011;4524;51.364;5.448;2023-04-19T05:09:02;14.37;;;10.93;;
8978;SDS011;4524;51.364;5.448;2023-04-19T05:11:34;12.23;;;10.97;;
8978;SDS011;4524;51.364;5.448;2023-04-19T05:14:03;11.93;;;10.13;;
8978;SDS011;4524;51.364;5.448;2023-04-19T05:16:33;12.40;;;10.67;;
8978;SDS011;4524;51.364;5.448;2023-04-19T05:19:02;12.67;;;10.40;;
8978;SDS011;4524;51.364;5.448;2023-04-19T05:21:34;10.60;;;9.43;;
8978;SDS011;4524;51.364;5.448;2023-04-19T05:24:04;11.63;;;9.53;;
8978;SDS011;4524;51.364;5.448;2023-04-19T05:26:33;10.70;;;9.63;;
8978;SDS011;4524;51.364;5.448;2023-04-19T05:29:03;12.83;;;9.80;;
8978;SDS011;4524;51.364;5.448;2023-04-19T05:31:44;10.10;;;9.10;;
8978;SDS011;4524;51.364;5.448;2023-04-19T05:34:20;10.80;;;8.77;;
8978;SDS011;4524;51.364;5.448;2023-04-19T05:36:49;10.47;;;8.93;;
8978;SDS011;4524;51.364;5.448;2023-04-19T05:39:17;9.93;;;8.53;;
8978;SDS011;4524;51.364;5.448;2023-04-19T05:41:45;10.23;;;8.40;;
8978;SDS011;4524;51.364;5.448;2023-04-19T05:44:13;8.57;;;7.43;;
8978;SDS011;4524;51.364;5.448;2023-04-19T05:46:41;8.63;;;7.60;;
8978;SDS011;4524;51.364;5.448;2023-04-19T05:49:13;10.07;;;8.87;;
8978;SDS011;4524;51.364;5.448;2023-04-19T05:52:14;9.30;;;8.07;;
8978;SDS011;4524;51.364;5.448;2023-04-19T05:54:51;9.90;;;8.23;;
8978;SDS011;4524;51.364;5.448;2023-04-19T05:57:19;9.90;;;8.07;;
8978;SDS011;4524;51.364;5.448;2023-04-19T05:59:47;8.90;;;7.60;;
8978;SDS011;4524;51.364;5.448;2023-04-19T06:02:19;8.83;;;7.83;;
8978;SDS011;4524;51.364;5.448;2023-04-19T06:04:49;8.47;;;7.57;;
8978;SDS011;4524;51.364;5.448;2023-04-19T06:07:17;8.63;;;7.80;;
8978;SDS011;4524;51.364;5.448;2023-04-19T06:09:56;9.30;;;7.40;;
8978;SDS011;4524;51.364;5.448;2023-04-19T06:12:24;7.40;;;6.50;;
8978;SDS011;4524;51.364;5.448;2023-04-19T06:14:52;7.80;;;6.80;;
8978;SDS011;4524;51.364;5.448;2023-04-19T06:17:20;8.33;;;7.20;;
8978;SDS011;4524;51.364;5.448;2023-04-19T06:19:52;8.20;;;6.23;;
8978;SDS011;4524;51.364;5.448;2023-04-19T06:22:21;7.57;;;6.77;;
8978;SDS011;4524;51.364;5.448;2023-04-19T06:24:49;7.77;;;6.23;;
8978;SDS011;4524;51.364;5.448;2023-04-19T06:27:17;7.37;;;6.47;;
8978;SDS011;4524;51.364;5.448;2023-04-19T06:29:44;8.53;;;6.80;;
8978;SDS011;4524;51.364;5.448;2023-04-19T06:32:16;8.20;;;6.83;;
8978;SDS011;4524;51.364;5.448;2023-04-19T06:34:44;9.13;;;6.50;;
8978;SDS011;4524;51.364;5.448;2023-04-19T06:37:13;7.57;;;6.67;;
8978;SDS011;4524;51.364;5.448;2023-04-19T06:39:41;6.77;;;6.10;;
8978;SDS011;4524;51.364;5.448;2023-04-19T06:42:09;7.60;;;6.60;;
8978;SDS011;4524;51.364;5.448;2023-04-19T06:44:37;7.23;;;6.27;;
8978;SDS011;4524;51.364;5.448;2023-04-19T06:47:05;7.17;;;6.03;;
8978;SDS011;4524;51.364;5.448;2023-04-19T06:49:33;7.73;;;6.03;;
8978;SDS011;4524;51.364;5.448;2023-04-19T06:52:01;9.10;;;6.17;;
8978;SDS011;4524;51.364;5.448;2023-04-19T06:54:30;8.13;;;6.20;;
8978;SDS011;4524;51.364;5.448;2023-04-19T06:56:58;7.37;;;6.30;;
8978;SDS011;4524;51.364;5.448;2023-04-19T06:59:27;7.20;;;6.30;;
8978;SDS011;4524;51.364;5.448;2023-04-19T07:01:57;7.07;;;6.37;;
8978;SDS011;4524;51.364;5.448;2023-04-19T07:04:25;7.10;;;6.40;;
8978;SDS011;4524;51.364;5.448;2023-04-19T07:06:54;7.00;;;6.30;;
8978;SDS011;4524;51.364;5.448;2023-04-19T07:09:21;11.50;;;6.67;;
8978;SDS011;4524;51.364;5.448;2023-04-19T07:11:51;8.03;;;6.03;;
8978;SDS011;4524;51.364;5.448;2023-04-19T07:14:18;7.50;;;6.60;;
8978;SDS011;4524;51.364;5.448;2023-04-19T07:16:46;8.40;;;6.70;;
8978;SDS011;4524;51.364;5.448;2023-04-19T07:19:16;8.30;;;6.33;;
8978;SDS011;4524;51.364;5.448;2023-04-19T07:21:45;7.77;;;6.43;;
8978;SDS011;4524;51.364;5.448;2023-04-19T07:24:13;7.67;;;6.30;;
8978;SDS011;4524;51.364;5.448;2023-04-19T07:26:42;9.10;;;6.87;;
8978;SDS011;4524;51.364;5.448;2023-04-19T07:29:12;7.00;;;6.30;;
8978;SDS011;4524;51.364;5.448;2023-04-19T07:31:40;7.43;;;5.93;;
8978;SDS011;4524;51.364;5.448;2023-04-19T07:34:08;7.97;;;6.03;;
8978;SDS011;4524;51.364;5.448;2023-04-19T07:36:36;7.17;;;5.90;;
8978;SDS011;4524;51.364;5.448;2023-04-19T07:39:04;7.77;;;6.30;;
8978;SDS011;4524;51.364;5.448;2023-04-19T07:41:32;7.07;;;5.57;;
8978;SDS011;4524;51.364;5.448;2023-04-19T07:44:01;8.73;;;6.17;;
8978;SDS011;4524;51.364;5.448;2023-04-19T07:46:30;6.87;;;6.17;;
8978;SDS011;4524;51.364;5.448;2023-04-19T07:48:59;9.00;;;6.10;;
8978;SDS011;4524;51.364;5.448;2023-04-19T07:51:26;8.27;;;6.30;;
8978;SDS011;4524;51.364;5.448;2023-04-19T07:53:54;8.80;;;6.43;;
8978;SDS011;4524;51.364;5.448;2023-04-19T07:56:22;7.47;;;6.30;;
8978;SDS011;4524;51.364;5.448;2023-04-19T07:58:52;6.53;;;5.87;;
8978;SDS011;4524;51.364;5.448;2023-04-19T08:01:35;7.47;;;6.47;;
8978;SDS011;4524;51.364;5.448;2023-04-19T08:04:03;6.67;;;5.93;;
8978;SDS011;4524;51.364;5.448;2023-04-19T08:06:32;7.57;;;6.47;;
8978;SDS011;4524;51.364;5.448;2023-04-19T08:09:00;6.73;;;6.13;;
8978;SDS011;4524;51.364;5.448;2023-04-19T08:11:28;7.40;;;6.57;;
8978;SDS011;4524;51.364;5.448;2023-04-19T08:13:56;6.30;;;5.70;;
8978;SDS011;4524;51.364;5.448;2023-04-19T08:16:45;6.37;;;5.63;;
8978;SDS011;4524;51.364;5.448;2023-04-19T08:19:16;7.37;;;5.87;;
8978;SDS011;4524;51.364;5.448;2023-04-19T08:21:44;6.70;;;6.00;;
8978;SDS011;4524;51.364;5.448;2023-04-19T08:24:12;6.73;;;6.03;;
8978;SDS011;4524;51.364;5.448;2023-04-19T08:26:40;9.17;;;5.90;;
8978;SDS011;4524;51.364;5.448;2023-04-19T08:29:08;7.30;;;5.70;;
8978;SDS011;4524;51.364;5.448;2023-04-19T08:31:36;6.03;;;5.30;;
8978;SDS011;4524;51.364;5.448;2023-04-19T08:34:06;7.63;;;5.70;;
8978;SDS011;4524;51.364;5.448;2023-04-19T08:36:34;8.03;;;5.70;;
8978;SDS011;4524;51.364;5.448;2023-04-19T08:39:08;6.03;;;5.43;;
8978;SDS011;4524;51.364;5.448;2023-04-19T08:41:50;6.07;;;5.43;;
8978;SDS011;4524;51.364;5.448;2023-04-19T08:44:31;6.47;;;5.80;;
8978;SDS011;4524;51.364;5.448;2023-04-19T08:47:02;7.07;;;6.13;;
8978;SDS011;4524;51.364;5.448;2023-04-19T08:49:33;6.70;;;5.40;;
8978;SDS011;4524;51.364;5.448;2023-04-19T08:52:01;5.90;;;5.23;;
8978;SDS011;4524;51.364;5.448;2023-04-19T08:54:31;6.03;;;5.33;;
8978;SDS011;4524;51.364;5.448;2023-04-19T08:57:01;9.50;;;6.10;;
8978;SDS011;4524;51.364;5.448;2023-04-19T08:59:29;10.00;;;5.70;;
8978;SDS011;4524;51.364;5.448;2023-04-19T09:01:59;6.97;;;5.77;;
8978;SDS011;4524;51.364;5.448;2023-04-19T09:04:28;7.00;;;6.07;;
8978;SDS011;4524;51.364;5.448;2023-04-19T09:07:04;7.70;;;5.43;;
8978;SDS011;4524;51.364;5.448;2023-04-19T09:09:33;6.60;;;5.57;;
8978;SDS011;4524;51.364;5.448;2023-04-19T09:12:17;7.77;;;5.83;;
8978;SDS011;4524;51.364;5.448;2023-04-19T09:14:45;9.90;;;5.43;;
8978;SDS011;4524;51.364;5.448;2023-04-19T09:17:16;5.57;;;5.03;;
8978;SDS011;4524;51.364;5.448;2023-04-19T09:19:44;5.60;;;5.10;;
8978;SDS011;4524;51.364;5.448;2023-04-19T09:22:14;6.63;;;5.00;;
8978;SDS011;4524;51.364;5.448;2023-04-19T09:24:43;5.40;;;4.90;;
8978;SDS011;4524;51.364;5.448;2023-04-19T09:27:31;5.60;;;4.83;;
8978;SDS011;4524;51.364;5.448;2023-04-19T09:30:01;5.50;;;4.57;;
8978;SDS011;4524;51.364;5.448;2023-04-19T09:32:43;5.60;;;4.90;;
8978;SDS011;4524;51.364;5.448;2023-04-19T09:35:13;6.33;;;3.87;;
8978;SDS011;4524;51.364;5.448;2023-04-19T09:37:42;7.93;;;4.67;;
8978;SDS011;4524;51.364;5.448;2023-04-19T09:40:31;5.67;;;5.00;;
8978;SDS011;4524;51.364;5.448;2023-04-19T09:43:00;5.37;;;4.57;;
8978;SDS011;4524;51.364;5.448;2023-04-19T09:45:48;5.43;;;4.37;;
8978;SDS011;4524;51.364;5.448;2023-04-19T09:48:17;5.80;;;4.77;;
8978;SDS011;4524;51.364;5.448;2023-04-19T09:50:52;7.67;;;4.50;;
8978;SDS011;4524;51.364;5.448;2023-04-19T09:53:30;6.53;;;4.67;;
8978;SDS011;4524;51.364;5.448;2023-04-19T09:56:00;8.07;;;4.07;;
8978;SDS011;4524;51.364;5.448;2023-04-19T09:58:30;4.77;;;4.17;;
8978;SDS011;4524;51.364;5.448;2023-04-19T10:01:01;4.63;;;4.00;;
8978;SDS011;4524;51.364;5.448;2023-04-19T10:03:33;6.53;;;3.80;;
8978;SDS011;4524;51.364;5.448;2023-04-19T10:06:02;7.00;;;3.43;;
8978;SDS011;4524;51.364;5.448;2023-04-19T10:08:42;5.67;;;3.90;;
8978;SDS011;4524;51.364;5.448;2023-04-19T10:11:10;4.90;;;4.27;;
8978;SDS011;4524;51.364;5.448;2023-04-19T10:13:39;4.97;;;4.23;;
8978;SDS011;4524;51.364;5.448;2023-04-19T10:16:07;4.47;;;4.07;;
8978;SDS011;4524;51.364;5.448;2023-04-19T10:18:45;7.77;;;4.10;;
8978;SDS011;4524;51.364;5.448;2023-04-19T10:21:14;4.23;;;3.40;;
8978;SDS011;4524;51.364;5.448;2023-04-19T10:23:44;4.90;;;3.43;;
8978;SDS011;4524;51.364;5.448;2023-04-19T10:26:12;4.53;;;3.83;;
8978;SDS011;4524;51.364;5.448;2023-04-19T10:28:40;6.80;;;3.57;;
8978;SDS011;4524;51.364;5.448;2023-04-19T10:31:10;5.50;;;4.00;;
8978;SDS011;4524;51.364;5.448;2023-04-19T10:33:39;4.37;;;3.80;;
8978;SDS011;4524;51.364;5.448;2023-04-19T10:36:08;5.13;;;4.03;;
8978;SDS011;4524;51.364;5.448;2023-04-19T10:38:37;4.33;;;3.60;;
8978;SDS011;4524;51.364;5.448;2023-04-19T10:41:08;6.57;;;3.57;;
8978;SDS011;4524;51.364;5.448;2023-04-19T10:43:43;5.20;;;3.30;;
8978;SDS011;4524;51.364;5.448;2023-04-19T10:46:14;4.20;;;3.40;;
8978;SDS011;4524;51.364;5.448;2023-04-19T10:49:02;3.90;;;3.47;;
8978;SDS011;4524;51.364;5.448;2023-04-19T10:51:33;3.57;;;3.27;;
8978;SDS011;4524;51.364;5.448;2023-04-19T10:54:03;6.10;;;3.40;;
8978;SDS011;4524;51.364;5.448;2023-04-19T10:56:56;8.20;;;3.10;;
8978;SDS011;4524;51.364;5.448;2023-04-19T10:59:28;4.83;;;3.00;;
8978;SDS011;4524;51.364;5.448;2023-04-19T11:01:57;3.67;;;3.00;;
8978;SDS011;4524;51.364;5.448;2023-04-19T11:07:35;3.20;;;2.90;;
8978;SDS011;4524;51.364;5.448;2023-04-19T11:10:05;4.20;;;2.40;;
8978;SDS011;4524;51.364;5.448;2023-04-19T11:12:35;4.37;;;2.97;;
8978;SDS011;4524;51.364;5.448;2023-04-19T11:15:04;4.60;;;2.47;;
8978;SDS011;4524;51.364;5.448;2023-04-19T11:17:34;5.60;;;2.63;;
8978;SDS011;4524;51.364;5.448;2023-04-19T11:20:05;4.63;;;2.43;;
8978;SDS011;4524;51.364;5.448;2023-04-19T11:22:36;2.33;;;2.13;;
8978;SDS011;4524;51.364;5.448;2023-04-19T11:25:06;3.67;;;1.93;;
8978;SDS011;4524;51.364;5.448;2023-04-19T11:27:37;5.70;;;2.10;;
8978;SDS011;4524;51.364;5.448;2023-04-19T11:30:06;2.83;;;2.20;;
8978;SDS011;4524;51.364;5.448;2023-04-19T11:32:37;5.10;;;2.37;;
8978;SDS011;4524;51.364;5.448;2023-04-19T11:35:11;6.97;;;1.93;;
8978;SDS011;4524;51.364;5.448;2023-04-19T11:37:40;5.27;;;2.03;;
8978;SDS011;4524;51.364;5.448;2023-04-19T11:40:08;4.97;;;2.10;;
8978;SDS011;4524;51.364;5.448;2023-04-19T11:42:42;2.10;;;1.90;;
8978;SDS011;4524;51.364;5.448;2023-04-19T11:45:10;7.57;;;2.10;;
8978;SDS011;4524;51.364;5.448;2023-04-19T11:47:53;5.07;;;2.07;;
8978;SDS011;4524;51.364;5.448;2023-04-19T11:53:16;2.77;;;2.40;;
8978;SDS011;4524;51.364;5.448;2023-04-19T11:55:45;3.70;;;2.30;;
8978;SDS011;4524;51.364;5.448;2023-04-19T11:58:27;4.77;;;2.10;;
8978;SDS011;4524;51.364;5.448;2023-04-19T12:01:01;2.73;;;2.20;;
8978;SDS011;4524;51.364;5.448;2023-04-19T12:03:32;6.03;;;2.30;;
8978;SDS011;4524;51.364;5.448;2023-04-19T12:06:01;5.30;;;2.30;;
8978;SDS011;4524;51.364;5.448;2023-04-19T12:08:34;4.83;;;2.47;;
8978;SDS011;4524;51.364;5.448;2023-04-19T12:11:04;3.83;;;2.37;;
8978;SDS011;4524;51.364;5.448;2023-04-19T12:13:34;3.00;;;2.00;;
8978;SDS011;4524;51.364;5.448;2023-04-19T12:16:02;5.93;;;2.13;;
8978;SDS011;4524;51.364;5.448;2023-04-19T12:18:41;4.00;;;2.30;;
8978;SDS011;4524;51.364;5.448;2023-04-19T12:21:11;4.07;;;2.20;;
8978;SDS011;4524;51.364;5.448;2023-04-19T12:23:52;4.17;;;2.50;;
8978;SDS011;4524;51.364;5.448;2023-04-19T12:26:21;5.70;;;2.33;;
8978;SDS011;4524;51.364;5.448;2023-04-19T12:28:50;3.67;;;2.40;;
8978;SDS011;4524;51.364;5.448;2023-04-19T12:31:18;4.57;;;2.30;;
8978;SDS011;4524;51.364;5.448;2023-04-19T12:33:46;3.70;;;2.33;;
8978;SDS011;4524;51.364;5.448;2023-04-19T12:36:14;4.03;;;2.10;;
8978;SDS011;4524;51.364;5.448;2023-04-19T12:38:42;6.40;;;2.60;;
8978;SDS011;4524;51.364;5.448;2023-04-19T12:41:10;2.53;;;2.33;;
8978;SDS011;4524;51.364;5.448;2023-04-19T12:43:38;2.73;;;2.50;;
8978;SDS011;4524;51.364;5.448;2023-04-19T12:46:07;4.67;;;2.37;;
8978;SDS011;4524;51.364;5.448;2023-04-19T12:48:35;5.23;;;2.60;;
8978;SDS011;4524;51.364;5.448;2023-04-19T12:51:03;3.07;;;2.30;;
8978;SDS011;4524;51.364;5.448;2023-04-19T12:53:33;4.93;;;2.30;;
8978;SDS011;4524;51.364;5.448;2023-04-19T12:56:01;5.07;;;2.20;;
8978;SDS011;4524;51.364;5.448;2023-04-19T12:58:29;4.63;;;2.63;;
8978;SDS011;4524;51.364;5.448;2023-04-19T13:00:57;3.00;;;2.53;;
8978;SDS011;4524;51.364;5.448;2023-04-19T13:03:27;3.73;;;2.43;;
8978;SDS011;4524;51.364;5.448;2023-04-19T13:05:58;3.10;;;2.33;;
8978;SDS011;4524;51.364;5.448;2023-04-19T13:08:26;2.70;;;2.23;;
8978;SDS011;4524;51.364;5.448;2023-04-19T13:11:11;3.87;;;2.30;;
8978;SDS011;4524;51.364;5.448;2023-04-19T13:13:39;2.70;;;2.50;;
8978;SDS011;4524;51.364;5.448;2023-04-19T13:16:07;5.50;;;2.90;;
8978;SDS011;4524;51.364;5.448;2023-04-19T13:18:36;3.20;;;2.43;;
8978;SDS011;4524;51.364;5.448;2023-04-19T13:21:04;3.23;;;2.33;;
8978;SDS011;4524;51.364;5.448;2023-04-19T13:23:34;2.47;;;2.23;;
8978;SDS011;4524;51.364;5.448;2023-04-19T13:26:02;3.00;;;2.40;;
8978;SDS011;4524;51.364;5.448;2023-04-19T13:28:30;4.43;;;2.50;;
8978;SDS011;4524;51.364;5.448;2023-04-19T13:31:01;3.00;;;2.50;;
8978;SDS011;4524;51.364;5.448;2023-04-19T13:33:29;5.73;;;2.70;;
8978;SDS011;4524;51.364;5.448;2023-04-19T13:35:59;4.07;;;2.50;;
8978;SDS011;4524;51.364;5.448;2023-04-19T13:38:27;6.53;;;2.50;;
8978;SDS011;4524;51.364;5.448;2023-04-19T13:40:55;3.63;;;2.57;;
8978;SDS011;4524;51.364;5.448;2023-04-19T13:43:22;6.57;;;2.53;;
8978;SDS011;4524;51.364;5.448;2023-04-19T13:45:50;6.70;;;2.63;;
8978;SDS011;4524;51.364;5.448;2023-04-19T13:48:19;3.00;;;2.20;;
8978;SDS011;4524;51.364;5.448;2023-04-19T13:50:47;5.03;;;2.90;;
8978;SDS011;4524;51.364;5.448;2023-04-19T13:53:18;3.60;;;2.53;;
8978;SDS011;4524;51.364;5.448;2023-04-19T13:55:45;3.60;;;2.40;;
8978;SDS011;4524;51.364;5.448;2023-04-19T13:58:13;3.97;;;2.47;;
8978;SDS011;4524;51.364;5.448;2023-04-19T14:00:41;3.00;;;2.50;;
8978;SDS011;4524;51.364;5.448;2023-04-19T14:03:09;4.17;;;2.20;;
8978;SDS011;4524;51.364;5.448;2023-04-19T14:05:38;2.80;;;2.57;;
8978;SDS011;4524;51.364;5.448;2023-04-19T14:08:06;4.43;;;2.83;;
8978;SDS011;4524;51.364;5.448;2023-04-19T14:10:35;4.30;;;2.43;;
8978;SDS011;4524;51.364;5.448;2023-04-19T14:13:03;4.50;;;2.37;;
8978;SDS011;4524;51.364;5.448;2023-04-19T14:15:31;4.67;;;2.20;;
8978;SDS011;4524;51.364;5.448;2023-04-19T14:17:59;5.40;;;2.70;;
8978;SDS011;4524;51.364;5.448;2023-04-19T14:20:28;3.77;;;2.90;;
8978;SDS011;4524;51.364;5.448;2023-04-19T14:22:56;5.37;;;2.83;;
8978;SDS011;4524;51.364;5.448;2023-04-19T14:25:25;2.97;;;2.27;;
8978;SDS011;4524;51.364;5.448;2023-04-19T14:27:54;3.90;;;2.87;;
8978;SDS011;4524;51.364;5.448;2023-04-19T14:30:22;7.70;;;3.50;;
8978;SDS011;4524;51.364;5.448;2023-04-19T14:32:51;5.03;;;2.60;;
8978;SDS011;4524;51.364;5.448;2023-04-19T14:35:19;4.63;;;2.80;;
8978;SDS011;4524;51.364;5.448;2023-04-19T14:37:47;3.03;;;2.60;;
8978;SDS011;4524;51.364;5.448;2023-04-19T14:40:15;4.87;;;2.83;;
8978;SDS011;4524;51.364;5.448;2023-04-19T14:42:45;4.83;;;2.80;;
8978;SDS011;4524;51.364;5.448;2023-04-19T14:45:14;4.23;;;3.20;;
8978;SDS011;4524;51.364;5.448;2023-04-19T14:47:42;5.23;;;3.20;;
8978;SDS011;4524;51.364;5.448;2023-04-19T14:50:10;4.40;;;2.90;;
8978;SDS011;4524;51.364;5.448;2023-04-19T14:52:38;5.37;;;2.97;;
8978;SDS011;4524;51.364;5.448;2023-04-19T14:55:07;4.60;;;3.37;;
8978;SDS011;4524;51.364;5.448;2023-04-19T14:57:36;7.77;;;3.37;;
8978;SDS011;4524;51.364;5.448;2023-04-19T15:00:04;3.63;;;3.10;;
8978;SDS011;4524;51.364;5.448;2023-04-19T15:02:34;3.27;;;2.90;;
8978;SDS011;4524;51.364;5.448;2023-04-19T15:05:03;4.53;;;3.43;;
8978;SDS011;4524;51.364;5.448;2023-04-19T15:07:32;3.80;;;2.97;;
8978;SDS011;4524;51.364;5.448;2023-04-19T15:10:00;4.90;;;3.33;;
8978;SDS011;4524;51.364;5.448;2023-04-19T15:12:28;4.10;;;3.10;;
8978;SDS011;4524;51.364;5.448;2023-04-19T15:14:56;4.77;;;3.20;;
8978;SDS011;4524;51.364;5.448;2023-04-19T15:17:24;3.40;;;3.10;;
8978;SDS011;4524;51.364;5.448;2023-04-19T15:19:53;4.77;;;3.43;;
8978;SDS011;4524;51.364;5.448;2023-04-19T15:22:21;5.30;;;3.43;;
8978;SDS011;4524;51.364;5.448;2023-04-19T15:24:49;4.90;;;3.63;;
8978;SDS011;4524;51.364;5.448;2023-04-19T15:27:17;5.07;;;3.53;;
8978;SDS011;4524;51.364;5.448;2023-04-19T15:29:45;3.90;;;3.50;;